createdAt,value
2019-06-15T00:00:20.987Z,21.14
2019-06-15T00:02:49.386Z,21.21
2019-06-15T00:05:17.796Z,21.28
2019-06-15T00:07:46.214Z,21.31
2019-06-15T00:10:14.705Z,20.91
2019-06-15T00:12:43.209Z,20.69
2019-06-15T00:15:11.934Z,20.72
2019-06-15T00:17:40.350Z,20.64
2019-06-15T00:20:09.122Z,20.60
2019-06-15T00:22:37.523Z,20.70
2019-06-15T00:25:08.996Z,20.66
2019-06-15T00:27:37.413Z,20.70
2019-06-15T00:30:10.885Z,20.59
2019-06-15T00:32:39.384Z,20.72
2019-06-15T00:35:11.233Z,20.83
2019-06-15T00:37:39.660Z,20.89
2019-06-15T00:40:08.713Z,21.01
2019-06-15T00:42:37.144Z,20.87
2019-06-15T00:45:06.383Z,20.79
2019-06-15T00:47:34.798Z,20.74
2019-06-15T00:50:03.383Z,20.63
2019-06-15T00:52:31.799Z,20.76
2019-06-15T00:55:00.216Z,20.75
2019-06-15T00:57:28.632Z,20.60
2019-06-15T00:59:57.040Z,20.66
2019-06-15T01:02:25.566Z,20.61
2019-06-15T01:04:53.985Z,20.56
2019-06-15T01:07:22.408Z,20.68
2019-06-15T01:09:50.817Z,20.53
2019-06-15T01:12:19.239Z,20.51
2019-06-15T01:14:47.651Z,20.48
2019-06-15T01:17:16.073Z,20.50
2019-06-15T01:19:44.497Z,20.60
2019-06-15T01:22:12.918Z,20.77
2019-06-15T01:24:41.338Z,20.58
2019-06-15T01:27:12.558Z,20.53
2019-06-15T01:29:41.039Z,20.42
2019-06-15T01:32:09.493Z,20.46
2019-06-15T01:34:37.922Z,20.44
2019-06-15T01:37:06.365Z,20.48
2019-06-15T01:39:34.775Z,20.65
2019-06-15T01:42:03.358Z,20.61
2019-06-15T01:44:31.768Z,20.62
2019-06-15T01:47:00.203Z,20.69
2019-06-15T01:49:28.614Z,20.73
2019-06-15T01:51:57.035Z,20.75
2019-06-15T01:54:25.454Z,20.82
2019-06-15T01:56:53.876Z,20.62
2019-06-15T01:59:22.280Z,20.78
2019-06-15T02:02:01.203Z,20.96
2019-06-15T02:04:29.621Z,21.16
2019-06-15T02:06:58.199Z,21.33
2019-06-15T02:09:26.664Z,21.46
2019-06-15T02:11:55.308Z,21.51
2019-06-15T02:14:23.716Z,21.61
2019-06-15T02:16:52.186Z,21.78
2019-06-15T02:19:22.114Z,21.74
2019-06-15T02:21:50.520Z,21.68
2019-06-15T02:24:21.779Z,21.64
2019-06-15T02:26:52.303Z,21.50
2019-06-15T02:29:26.264Z,21.15
2019-06-15T02:31:54.694Z,20.69
2019-06-15T02:34:23.112Z,20.29
2019-06-15T02:36:51.523Z,19.98
2019-06-15T02:39:19.975Z,20.21
2019-06-15T02:41:48.962Z,20.43
2019-06-15T02:44:17.711Z,20.50
2019-06-15T02:46:46.496Z,20.48
2019-06-15T02:49:14.915Z,20.71
2019-06-15T02:51:43.345Z,20.89
2019-06-15T02:54:11.780Z,20.98
2019-06-15T02:56:40.199Z,20.81
2019-06-15T02:59:08.643Z,20.56
2019-06-15T03:01:37.051Z,20.24
2019-06-15T03:04:05.663Z,20.25
2019-06-15T03:06:34.440Z,20.06
2019-06-15T03:09:03.218Z,19.72
2019-06-15T03:11:31.673Z,19.78
2019-06-15T03:14:00.457Z,20.04
2019-06-15T03:16:28.885Z,20.09
2019-06-15T03:18:57.395Z,20.20
2019-06-15T03:21:25.837Z,19.94
2019-06-15T03:23:54.286Z,19.61
2019-06-15T03:26:22.694Z,19.59
2019-06-15T03:28:51.123Z,19.60
2019-06-15T03:31:19.540Z,19.40
2019-06-15T03:33:48.011Z,19.18
2019-06-15T03:36:16.422Z,19.01
2019-06-15T03:38:44.853Z,18.91
2019-06-15T03:41:13.272Z,18.89
2019-06-15T03:43:41.735Z,18.88
2019-06-15T03:46:10.139Z,18.66
2019-06-15T03:48:38.581Z,18.59
2019-06-15T03:51:07.053Z,18.41
2019-06-15T03:53:35.503Z,18.30
2019-06-15T03:56:03.951Z,18.43
2019-06-15T03:58:32.405Z,18.42
2019-06-15T04:01:12.399Z,18.49
2019-06-15T04:03:40.830Z,18.44
2019-06-15T04:06:09.272Z,18.70
2019-06-15T04:08:37.691Z,18.83
2019-06-15T04:11:06.115Z,18.87
2019-06-15T04:13:34.529Z,19.02
2019-06-15T04:16:02.967Z,19.13
2019-06-15T04:18:31.410Z,19.35
2019-06-15T04:21:00.095Z,19.35
2019-06-15T04:23:28.511Z,19.51
2019-06-15T04:25:56.957Z,19.61
2019-06-15T04:28:25.376Z,19.24
2019-06-15T04:30:53.801Z,18.68
2019-06-15T04:33:22.219Z,18.24
2019-06-15T04:35:50.703Z,18.01
2019-06-15T04:38:20.692Z,17.88
2019-06-15T04:40:49.112Z,17.93
2019-06-15T04:43:17.579Z,18.04
2019-06-15T04:45:46.025Z,18.30
2019-06-15T04:48:14.510Z,18.57
2019-06-15T04:50:42.953Z,18.82
2019-06-15T04:53:11.397Z,18.87
2019-06-15T04:55:39.865Z,19.06
2019-06-15T04:58:08.313Z,19.13
2019-06-15T05:00:36.768Z,19.43
2019-06-15T05:03:05.280Z,19.81
2019-06-15T05:05:33.912Z,19.87
2019-06-15T05:08:02.394Z,19.79
2019-06-15T05:10:30.825Z,19.49
2019-06-15T05:12:59.249Z,19.44
2019-06-15T05:15:27.723Z,19.31
2019-06-15T05:17:56.195Z,19.34
2019-06-15T05:20:24.659Z,19.41
2019-06-15T05:22:53.174Z,19.32
2019-06-15T05:25:21.604Z,19.20
2019-06-15T05:27:51.829Z,19.26
2019-06-15T05:30:20.371Z,19.28
2019-06-15T05:32:48.841Z,19.22
2019-06-15T05:35:17.455Z,19.19
2019-06-15T05:37:45.940Z,19.10
2019-06-15T05:40:17.873Z,19.03
2019-06-15T05:42:48.091Z,19.01
2019-06-15T05:45:18.447Z,19.02
2019-06-15T05:47:46.878Z,19.01
2019-06-15T05:50:15.687Z,19.18
2019-06-15T05:52:44.121Z,19.24
2019-06-15T05:55:13.114Z,19.27
2019-06-15T05:57:41.576Z,19.28
2019-06-15T06:00:11.941Z,19.37
2019-06-15T06:02:47.178Z,19.44
2019-06-15T06:05:20.969Z,19.47
2019-06-15T06:07:49.291Z,19.45
2019-06-15T06:10:17.862Z,19.51
2019-06-15T06:12:46.295Z,19.61
2019-06-15T06:15:16.070Z,19.64
2019-06-15T06:17:44.517Z,19.80
2019-06-15T06:20:13.176Z,19.89
2019-06-15T06:22:41.606Z,19.98
2019-06-15T06:25:12.668Z,20.07
2019-06-15T06:27:41.144Z,20.19
2019-06-15T06:30:11.139Z,20.39
2019-06-15T06:32:39.627Z,20.56
2019-06-15T06:35:08.819Z,20.59
2019-06-15T06:37:37.258Z,20.66
2019-06-15T06:40:08.922Z,20.82
2019-06-15T06:42:38.122Z,21.14
2019-06-15T06:45:18.358Z,21.18
2019-06-15T06:47:46.829Z,21.27
2019-06-15T06:50:15.796Z,21.39
2019-06-15T06:52:44.258Z,21.31
2019-06-15T06:55:13.726Z,21.24
2019-06-15T06:57:52.367Z,21.40
2019-06-15T07:00:14.033Z,21.57
2019-06-15T07:02:42.462Z,21.76
2019-06-15T07:05:12.251Z,21.80
2019-06-15T07:07:40.672Z,21.89
2019-06-15T07:10:10.135Z,21.75
2019-06-15T07:12:38.583Z,21.75
2019-06-15T07:15:07.612Z,21.81
2019-06-15T07:17:36.281Z,22.11
2019-06-15T07:20:07.082Z,22.36
2019-06-15T07:22:35.509Z,22.55
2019-06-15T07:25:05.998Z,22.47
2019-06-15T07:27:34.455Z,22.47
2019-06-15T07:30:03.941Z,22.55
2019-06-15T07:32:32.357Z,22.86
2019-06-15T07:35:00.789Z,22.96
2019-06-15T07:37:29.234Z,23.13
2019-06-15T07:39:57.642Z,23.36
2019-06-15T07:42:26.101Z,23.57
2019-06-15T07:44:54.576Z,23.80
2019-06-15T07:47:23.030Z,23.89
2019-06-15T07:49:51.489Z,23.68
2019-06-15T07:52:19.890Z,23.84
2019-06-15T07:54:49.910Z,23.98
2019-06-15T07:57:18.351Z,23.87
2019-06-15T07:59:47.061Z,23.75
2019-06-15T08:02:15.530Z,24.06
2019-06-15T08:04:43.936Z,24.28
2019-06-15T08:07:12.437Z,24.37
2019-06-15T08:09:40.880Z,24.47
2019-06-15T08:12:09.336Z,24.51
2019-06-15T08:14:37.767Z,24.95
2019-06-15T08:17:06.285Z,25.19
2019-06-15T08:19:34.687Z,25.40
2019-06-15T08:22:03.188Z,25.63
2019-06-15T08:24:31.679Z,25.62
2019-06-15T08:27:00.099Z,25.77
2019-06-15T08:29:28.557Z,26.16
2019-06-15T08:31:56.990Z,26.25
2019-06-15T08:34:25.428Z,26.87
2019-06-15T08:36:53.892Z,27.41
2019-06-15T08:39:22.323Z,27.84
2019-06-15T08:41:50.744Z,28.09
2019-06-15T08:44:19.178Z,27.90
2019-06-15T08:46:47.608Z,27.68
2019-06-15T08:49:16.030Z,27.54
2019-06-15T08:51:44.452Z,27.54
2019-06-15T08:54:12.907Z,28.14
2019-06-15T08:56:41.332Z,28.38
2019-06-15T08:59:09.805Z,28.64
2019-06-15T09:01:38.219Z,28.73
2019-06-15T09:04:06.652Z,28.64
2019-06-15T09:06:35.069Z,28.73
2019-06-15T09:09:04.144Z,29.10
2019-06-15T09:11:32.593Z,29.40
2019-06-15T09:14:01.289Z,29.33
2019-06-15T09:16:29.725Z,29.38
2019-06-15T09:18:58.178Z,29.26
2019-06-15T09:21:29.629Z,29.34
2019-06-15T09:23:58.031Z,29.44
2019-06-15T09:26:26.456Z,29.19
2019-06-15T09:29:09.998Z,28.62
2019-06-15T09:31:26.830Z,28.44
2019-06-15T09:33:55.248Z,28.58
2019-06-15T09:36:23.680Z,28.65
2019-06-15T09:38:56.643Z,28.41
2019-06-15T09:41:25.066Z,28.57
2019-06-15T09:43:53.488Z,28.52
2019-06-15T09:46:21.954Z,28.35
2019-06-15T09:48:50.364Z,28.03
2019-06-15T09:51:18.786Z,27.61
2019-06-15T09:53:47.204Z,27.37
2019-06-15T09:56:15.627Z,27.02
2019-06-15T09:58:44.056Z,27.05
2019-06-15T10:01:12.488Z,27.22
2019-06-15T10:03:40.916Z,27.10
2019-06-15T10:06:11.770Z,26.74
2019-06-15T10:08:39.712Z,26.97
2019-06-15T10:11:08.192Z,26.81
2019-06-15T10:13:36.600Z,26.74
2019-06-15T10:16:19.130Z,26.96
2019-06-15T10:18:38.635Z,26.50
2019-06-15T10:21:05.658Z,26.45
2019-06-15T10:23:34.065Z,26.37
2019-06-15T10:26:02.480Z,26.41
2019-06-15T10:28:30.942Z,25.72
2019-06-15T10:31:00.827Z,25.42
2019-06-15T10:33:29.486Z,25.38
2019-06-15T10:35:57.868Z,25.58
2019-06-15T10:38:26.307Z,25.68
2019-06-15T10:40:54.728Z,25.53
2019-06-15T10:43:23.183Z,25.66
2019-06-15T10:45:51.591Z,25.53
2019-06-15T10:48:20.108Z,25.63
2019-06-15T10:50:48.611Z,24.86
2019-06-15T10:53:17.221Z,24.54
2019-06-15T10:55:45.674Z,24.53
2019-06-15T10:58:14.098Z,24.40
2019-06-15T11:00:51.080Z,24.24
2019-06-15T11:03:19.434Z,24.14
2019-06-15T11:05:47.873Z,24.30
2019-06-15T11:08:16.338Z,24.23
2019-06-15T11:10:47.809Z,24.55
2019-06-15T11:13:16.438Z,24.75
2019-06-15T11:15:44.869Z,25.04
2019-06-15T11:18:13.369Z,24.85
2019-06-15T11:20:46.729Z,24.93
2019-06-15T11:23:15.190Z,24.78
2019-06-15T11:25:43.651Z,24.92
2019-06-15T11:28:13.018Z,25.04
2019-06-15T11:30:45.941Z,24.93
2019-06-15T11:33:17.282Z,24.71
2019-06-15T11:35:48.849Z,24.67
2019-06-15T11:38:17.312Z,24.13
2019-06-15T11:40:45.915Z,23.63
2019-06-15T11:43:16.983Z,23.84
2019-06-15T11:45:48.331Z,23.03
2019-06-15T11:48:16.827Z,22.96
2019-06-15T11:50:45.209Z,23.03
2019-06-15T11:53:15.310Z,22.98
2019-06-15T11:55:45.251Z,22.65
2019-06-15T11:58:13.688Z,22.72
2019-06-15T12:00:42.383Z,23.13
2019-06-15T12:03:10.846Z,23.49
2019-06-15T12:05:39.279Z,23.83
2019-06-15T12:08:07.713Z,23.98
2019-06-15T12:10:36.150Z,23.83
2019-06-15T12:13:04.598Z,23.94
2019-06-15T12:15:33.016Z,23.27
2019-06-15T12:18:01.457Z,23.03
2019-06-15T12:20:29.908Z,22.87
2019-06-15T12:22:58.420Z,23.00
2019-06-15T12:25:26.861Z,23.18
2019-06-15T12:27:55.486Z,23.66
2019-06-15T12:30:29.721Z,24.09
2019-06-15T12:32:58.305Z,24.08
2019-06-15T12:35:29.916Z,23.73
2019-06-15T12:37:58.386Z,23.64
2019-06-15T12:40:26.888Z,23.98
2019-06-15T12:42:55.291Z,24.50
2019-06-15T12:45:23.888Z,24.64
2019-06-15T12:47:53.076Z,25.27
2019-06-15T12:50:21.562Z,25.32
2019-06-15T12:52:50.007Z,25.61
2019-06-15T12:55:18.512Z,26.14
2019-06-15T12:57:46.944Z,26.15
2019-06-15T13:00:16.117Z,26.45
2019-06-15T13:02:44.517Z,26.27
2019-06-15T13:05:13.250Z,26.55
2019-06-15T13:07:41.720Z,26.13
2019-06-15T13:10:10.443Z,25.65
2019-06-15T13:12:38.872Z,25.83
2019-06-15T13:15:08.756Z,25.94
2019-06-15T13:17:37.165Z,25.78
2019-06-15T13:20:08.508Z,26.21
2019-06-15T13:22:36.943Z,26.46
2019-06-15T13:25:08.664Z,25.84
2019-06-15T13:27:37.073Z,25.85
2019-06-15T13:30:06.851Z,26.18
2019-06-15T13:32:35.261Z,26.01
2019-06-15T13:35:05.567Z,26.13
2019-06-15T13:37:42.159Z,26.37
2019-06-15T13:40:06.388Z,26.60
2019-06-15T13:42:34.831Z,26.04
2019-06-15T13:45:05.017Z,26.36
2019-06-15T13:47:33.419Z,26.45
2019-06-15T13:50:01.926Z,26.23
2019-06-15T13:52:30.306Z,26.24
2019-06-15T13:54:58.781Z,26.41
2019-06-15T13:57:27.197Z,26.34
2019-06-15T13:59:55.638Z,26.40
2019-06-15T14:02:24.059Z,26.42
2019-06-15T14:04:52.485Z,26.51
2019-06-15T14:07:20.908Z,26.47
2019-06-15T14:09:49.328Z,26.61
2019-06-15T14:12:17.751Z,26.85
2019-06-15T14:14:46.179Z,27.06
2019-06-15T14:17:17.381Z,27.15
2019-06-15T14:19:45.794Z,27.06
2019-06-15T14:22:14.222Z,27.06
2019-06-15T14:24:42.648Z,27.26
2019-06-15T14:27:11.061Z,27.51
2019-06-15T14:29:39.503Z,27.53
2019-06-15T14:32:17.323Z,27.87
2019-06-15T14:34:56.144Z,27.78
2019-06-15T14:37:30.682Z,27.80
2019-06-15T14:40:04.850Z,27.65
2019-06-15T14:42:30.945Z,27.57
2019-06-15T14:44:59.400Z,27.87
2019-06-15T14:47:27.855Z,27.44
2019-06-15T14:49:56.264Z,27.23
2019-06-15T14:52:29.367Z,27.21
2019-06-15T14:54:57.951Z,26.97
2019-06-15T14:57:27.049Z,27.00
2019-06-15T15:00:04.428Z,26.89
2019-06-15T15:02:26.382Z,26.40
2019-06-15T15:04:56.537Z,26.44
2019-06-15T15:07:26.357Z,26.21
2019-06-15T15:09:56.681Z,26.11
2019-06-15T15:12:26.559Z,25.66
2019-06-15T15:14:56.530Z,25.27
2019-06-15T15:17:26.967Z,24.45
2019-06-15T15:19:57.414Z,23.70
2019-06-15T15:22:26.744Z,22.86
2019-06-15T15:24:56.170Z,22.26
2019-06-15T15:27:27.066Z,22.07
2019-06-15T15:29:56.988Z,21.47
2019-06-15T15:32:30.518Z,21.48
2019-06-15T15:34:56.017Z,21.44
2019-06-15T15:37:26.882Z,21.45
2019-06-15T15:39:56.516Z,21.57
2019-06-15T15:42:26.758Z,21.57
2019-06-15T15:44:56.585Z,21.55
2019-06-15T15:47:27.245Z,22.03
2019-06-15T15:49:57.603Z,22.57
2019-06-15T15:52:26.923Z,23.11
2019-06-15T15:54:56.536Z,23.53
2019-06-15T15:57:26.518Z,23.45
2019-06-15T15:59:56.344Z,23.20
2019-06-15T16:02:35.696Z,23.22
2019-06-15T16:04:57.874Z,23.41
2019-06-15T16:07:27.799Z,23.52
2019-06-15T16:09:56.501Z,23.29
2019-06-15T16:12:25.007Z,23.10
2019-06-15T16:14:53.483Z,23.36
2019-06-15T16:17:21.908Z,23.50
2019-06-15T16:19:50.329Z,23.55
2019-06-15T16:22:18.797Z,23.70
2019-06-15T16:24:48.084Z,23.38
2019-06-15T16:27:21.906Z,23.43
2019-06-15T16:29:51.854Z,23.00
2019-06-15T16:32:21.937Z,22.93
2019-06-15T16:34:50.373Z,23.05
2019-06-15T16:37:18.851Z,23.17
2019-06-15T16:39:47.291Z,23.04
2019-06-15T16:42:15.733Z,22.73
2019-06-15T16:44:46.796Z,22.72
2019-06-15T16:47:16.686Z,22.61
2019-06-15T16:49:46.482Z,22.61
2019-06-15T16:52:27.050Z,22.78
2019-06-15T16:54:55.486Z,23.03
2019-06-15T16:57:23.902Z,22.95
2019-06-15T16:59:52.321Z,22.69
2019-06-15T17:02:20.772Z,22.49
2019-06-15T17:04:49.199Z,22.43
2019-06-15T17:07:17.619Z,22.58
2019-06-15T17:09:46.592Z,22.63
2019-06-15T17:12:16.852Z,22.72
2019-06-15T17:14:45.172Z,22.81
2019-06-15T17:17:13.604Z,22.91
2019-06-15T17:19:42.044Z,23.02
2019-06-15T17:22:18.605Z,23.01
2019-06-15T17:24:50.095Z,23.18
2019-06-15T17:27:19.967Z,23.01
2019-06-15T17:29:46.920Z,22.97
2019-06-15T17:32:17.034Z,23.09
2019-06-15T17:34:46.927Z,23.23
2019-06-15T17:37:17.275Z,23.13
2019-06-15T17:39:46.634Z,23.42
2019-06-15T17:42:16.383Z,23.59
2019-06-15T17:44:46.200Z,23.60
2019-06-15T17:47:16.897Z,23.50
2019-06-15T17:49:46.856Z,23.45
2019-06-15T17:52:16.872Z,23.65
2019-06-15T17:54:46.666Z,23.44
2019-06-15T17:57:15.241Z,23.52
2019-06-15T17:59:43.678Z,23.32
2019-06-15T18:02:12.076Z,23.42
2019-06-15T18:04:42.940Z,23.55
2019-06-15T18:07:16.786Z,23.50
2019-06-15T18:09:46.608Z,23.45
2019-06-15T18:12:16.309Z,23.03
2019-06-15T18:14:46.502Z,23.00
2019-06-15T18:17:17.190Z,22.98
2019-06-15T18:19:46.956Z,23.02
2019-06-15T18:22:17.054Z,22.81
2019-06-15T18:24:46.659Z,22.64
2019-06-15T18:27:16.910Z,22.63
2019-06-15T18:29:46.460Z,22.72
2019-06-15T18:32:17.091Z,22.46
2019-06-15T18:34:46.491Z,22.35
2019-06-15T18:37:17.113Z,22.31
2019-06-15T18:39:46.754Z,22.13
2019-06-15T18:42:16.932Z,22.04
2019-06-15T18:44:47.942Z,21.83
2019-06-15T18:47:16.875Z,21.75
2019-06-15T18:49:47.394Z,21.50
2019-06-15T18:52:20.006Z,21.51
2019-06-15T18:54:50.041Z,21.32
2019-06-15T18:57:21.314Z,21.35
2019-06-15T18:59:49.815Z,21.14
2019-06-15T19:02:22.558Z,21.11
2019-06-15T19:04:52.882Z,20.87
2019-06-15T19:07:26.989Z,20.98
2019-06-15T19:09:56.040Z,20.84
2019-06-15T19:12:26.378Z,21.04
2019-06-15T19:14:56.172Z,21.13
2019-06-15T19:17:24.641Z,20.79
2019-06-15T19:19:57.213Z,20.73
2019-06-15T19:22:27.116Z,20.68
2019-06-15T19:24:57.092Z,20.65
2019-06-15T19:27:26.008Z,20.67
2019-06-15T19:29:56.504Z,20.73
2019-06-15T19:32:26.309Z,20.68
2019-06-15T19:34:56.889Z,20.44
2019-06-15T19:37:27.247Z,20.53
2019-06-15T19:39:58.361Z,20.75
2019-06-15T19:42:26.824Z,21.00
2019-06-15T19:44:56.236Z,20.68
2019-06-15T19:47:26.517Z,20.67
2019-06-15T19:49:56.839Z,20.61
2019-06-15T19:52:25.358Z,20.56
2019-06-15T19:55:01.235Z,20.25
2019-06-15T19:57:29.658Z,20.13
2019-06-15T19:59:58.229Z,20.24
2019-06-15T20:02:27.080Z,20.04
2019-06-15T20:05:11.049Z,19.87
2019-06-15T20:07:42.774Z,19.85
2019-06-15T20:10:11.888Z,19.87
2019-06-15T20:12:48.777Z,20.00
2019-06-15T20:15:26.807Z,19.71
2019-06-15T20:17:56.956Z,19.84
2019-06-15T20:20:26.690Z,20.00
2019-06-15T20:22:56.108Z,20.03
2019-06-15T20:25:26.698Z,20.12
2019-06-15T20:27:56.358Z,20.19
2019-06-15T20:30:24.933Z,20.15
2019-06-15T20:32:53.435Z,20.12
2019-06-15T20:35:21.841Z,20.07
2019-06-15T20:37:59.340Z,20.05
2019-06-15T20:40:27.746Z,20.01
2019-06-15T20:42:56.617Z,19.95
2019-06-15T20:45:26.809Z,19.83
2019-06-15T20:48:01.186Z,19.77
2019-06-15T20:50:29.596Z,19.72
2019-06-15T20:52:59.724Z,19.62
2019-06-15T20:55:28.122Z,19.58
2019-06-15T20:57:57.031Z,19.56
2019-06-15T21:00:26.342Z,19.53
2019-06-15T21:02:56.277Z,19.44
2019-06-15T21:05:38.957Z,19.44
2019-06-15T21:08:02.526Z,19.23
2019-06-15T21:10:30.903Z,19.13
2019-06-15T21:12:59.591Z,19.01
2019-06-15T21:15:31.093Z,18.99
2019-06-15T21:18:01.349Z,19.02
2019-06-15T21:20:29.791Z,18.98
2019-06-15T21:22:58.216Z,18.81
2019-06-15T21:25:26.658Z,18.62
2019-06-15T21:27:56.740Z,18.61
2019-06-15T21:30:27.078Z,18.63
2019-06-15T21:32:57.784Z,18.53
2019-06-15T21:35:26.711Z,18.46
2019-06-15T21:37:57.232Z,18.13
2019-06-15T21:40:27.543Z,18.14
2019-06-15T21:42:57.663Z,18.15
2019-06-15T21:45:27.742Z,18.05
2019-06-15T21:48:01.916Z,18.15
2019-06-15T21:50:30.315Z,18.10
2019-06-15T21:52:59.646Z,17.83
2019-06-15T21:55:28.070Z,17.64
2019-06-15T21:57:59.283Z,17.55
2019-06-15T22:00:48.631Z,17.65
2019-06-15T22:03:17.151Z,17.66
2019-06-15T22:06:02.724Z,17.66
2019-06-15T22:08:21.375Z,17.71
2019-06-15T22:10:49.797Z,17.63
2019-06-15T22:13:18.230Z,17.61
2019-06-15T22:15:46.823Z,17.59
2019-06-15T22:18:16.367Z,17.65
2019-06-15T22:20:47.133Z,17.61
2019-06-15T22:23:16.249Z,17.67
2019-06-15T22:25:46.489Z,17.63
2019-06-15T22:28:16.491Z,17.65
2019-06-15T22:30:46.154Z,17.57
2019-06-15T22:33:16.477Z,17.50
2019-06-15T22:35:47.283Z,17.51
2019-06-15T22:38:15.203Z,17.50
2019-06-15T22:40:43.639Z,17.51
2019-06-15T22:43:12.067Z,17.46
2019-06-15T22:45:40.505Z,17.27
2019-06-15T22:48:08.985Z,17.29
2019-06-15T22:50:37.412Z,17.24
2019-06-15T22:53:07.274Z,17.30
2019-06-15T22:55:36.958Z,17.28
2019-06-15T22:58:06.509Z,17.26
2019-06-15T23:00:37.407Z,17.25
2019-06-15T23:03:06.283Z,17.30
2019-06-15T23:05:35.085Z,17.31
2019-06-15T23:08:03.519Z,17.22
2019-06-15T23:10:31.959Z,17.28
2019-06-15T23:13:00.369Z,17.25
2019-06-15T23:15:28.810Z,17.16
2019-06-15T23:17:57.348Z,17.08
2019-06-15T23:20:26.977Z,17.08
2019-06-15T23:22:56.082Z,17.07
2019-06-15T23:25:27.252Z,17.06
2019-06-15T23:27:56.334Z,17.05
2019-06-15T23:30:24.818Z,17.00
2019-06-15T23:32:56.038Z,16.99
2019-06-15T23:35:26.165Z,16.91
2019-06-15T23:37:55.933Z,16.90
2019-06-15T23:40:26.919Z,16.85
2019-06-15T23:42:56.588Z,16.76
2019-06-15T23:45:26.784Z,16.73
2019-06-15T23:47:57.486Z,16.62
2019-06-15T23:50:26.357Z,16.57
2019-06-15T23:52:55.001Z,16.53
2019-06-15T23:55:23.412Z,16.38
2019-06-15T23:57:51.834Z,16.26
